createdAt,value
2022-10-30T00:01:18.024Z,98948.78
2022-10-30T00:04:20.803Z,98946.44
2022-10-30T00:07:23.444Z,98948.50
2022-10-30T00:10:26.723Z,98946.28
2022-10-30T00:13:30.742Z,98939.28
2022-10-30T00:16:33.393Z,98938.91
2022-10-30T00:19:36.119Z,98934.97
2022-10-30T00:22:38.980Z,98939.03
2022-10-30T00:25:41.793Z,98939.81
2022-10-30T00:28:45.997Z,98937.41
2022-10-30T00:31:48.638Z,98935.59
2022-10-30T00:34:51.602Z,98935.91
2022-10-30T00:37:54.400Z,98928.47
2022-10-30T00:40:57.186Z,98926.50
2022-10-30T00:44:01.236Z,98926.56
2022-10-30T00:47:06.270Z,98925.00
2022-10-30T00:50:11.212Z,98930.50
2022-10-30T00:53:17.510Z,98920.88
2022-10-30T00:56:21.763Z,98925.16
2022-10-30T00:59:28.132Z,98927.66
2022-10-30T01:02:30.994Z,98934.47
2022-10-30T01:05:35.349Z,98932.66
2022-10-30T01:08:38.637Z,98923.63
2022-10-30T01:11:41.388Z,98936.06
2022-10-30T01:14:49.146Z,98931.38
2022-10-30T01:18:09.518Z,98935.13
2022-10-30T01:21:33.746Z,98940.09
2022-10-30T01:24:46.173Z,98945.09
2022-10-30T01:27:57.179Z,98936.00
2022-10-30T01:31:12.272Z,98931.81
2022-10-30T01:34:19.883Z,98937.16
2022-10-30T01:37:26.930Z,98938.00
2022-10-30T01:40:29.792Z,98934.91
2022-10-30T01:43:32.859Z,98930.72
2022-10-30T01:46:54.014Z,98921.78
2022-10-30T01:50:18.476Z,98919.06
2022-10-30T01:53:30.972Z,98912.91
2022-10-30T01:56:39.006Z,98914.38
2022-10-30T01:59:45.864Z,98911.56
2022-10-30T02:02:50.316Z,98906.16
2022-10-30T02:05:54.618Z,98904.19
2022-10-30T02:08:57.638Z,98905.56
2022-10-30T02:12:01.105Z,98908.00
2022-10-30T02:15:03.626Z,98902.88
2022-10-30T02:18:07.732Z,98899.25
2022-10-30T02:21:11.685Z,98892.63
2022-10-30T02:24:14.359Z,98897.31
2022-10-30T02:27:17.229Z,98899.44
2022-10-30T02:30:19.793Z,98903.53
2022-10-30T02:33:24.273Z,98894.81
2022-10-30T02:36:28.450Z,98890.75
2022-10-30T02:39:31.018Z,98883.03
2022-10-30T02:42:33.740Z,98893.91
2022-10-30T02:45:36.379Z,98885.69
2022-10-30T02:48:39.088Z,98896.28
2022-10-30T02:51:43.049Z,98888.13
2022-10-30T02:54:45.724Z,98890.13
2022-10-30T02:57:48.536Z,98885.34
2022-10-30T03:00:51.176Z,98885.25
2022-10-30T03:03:53.895Z,98887.19
2022-10-30T03:06:57.811Z,98889.81
2022-10-30T03:10:00.424Z,98883.72
2022-10-30T03:13:03.122Z,98888.06
2022-10-30T03:16:08.041Z,98892.28
2022-10-30T03:19:10.748Z,98896.03
2022-10-30T03:22:14.849Z,98885.38
2022-10-30T03:25:23.341Z,98887.81
2022-10-30T03:28:27.835Z,98890.94
2022-10-30T03:31:32.160Z,98897.63
2022-10-30T03:34:34.842Z,98894.28
2022-10-30T03:37:38.841Z,98901.22
2022-10-30T03:40:41.855Z,98899.28
2022-10-30T03:43:44.605Z,98907.13
2022-10-30T03:46:47.239Z,98903.63
2022-10-30T03:49:49.913Z,98914.34
2022-10-30T03:52:54.627Z,98907.25
2022-10-30T03:55:59.058Z,98911.97
2022-10-30T03:59:01.857Z,98916.34
2022-10-30T04:02:04.729Z,98914.91
2022-10-30T04:05:08.310Z,98918.38
2022-10-30T04:08:13.502Z,98915.94
2022-10-30T04:11:16.235Z,98919.16
2022-10-30T04:14:18.935Z,98916.13
2022-10-30T04:17:22.627Z,98915.03
2022-10-30T04:20:26.842Z,98917.13
2022-10-30T04:23:30.961Z,98917.78
2022-10-30T04:26:33.560Z,98912.81
2022-10-30T04:29:37.799Z,98923.44
2022-10-30T04:32:47.198Z,98920.22
2022-10-30T04:35:49.931Z,98913.59
2022-10-30T04:38:54.064Z,98914.88
2022-10-30T04:41:56.796Z,98920.03
2022-10-30T04:45:04.967Z,98917.75
2022-10-30T04:48:12.434Z,98919.41
2022-10-30T04:51:16.006Z,98924.88
2022-10-30T04:54:21.043Z,98920.19
2022-10-30T04:57:26.697Z,98919.69
2022-10-30T05:00:29.705Z,98910.56
2022-10-30T05:03:32.540Z,98912.69
2022-10-30T05:06:35.203Z,98913.66
2022-10-30T05:09:39.356Z,98908.66
2022-10-30T05:12:42.915Z,98904.81
2022-10-30T05:15:45.522Z,98910.75
2022-10-30T05:18:48.153Z,98903.16
2022-10-30T05:21:50.924Z,98909.94
2022-10-30T05:24:55.074Z,98906.25
2022-10-30T05:28:01.739Z,98903.03
2022-10-30T05:31:04.788Z,98899.88
2022-10-30T05:34:07.653Z,98902.63
2022-10-30T05:37:10.474Z,98898.13
2022-10-30T05:40:14.722Z,98906.34
2022-10-30T05:43:17.295Z,98900.69
2022-10-30T05:46:20.096Z,98902.13
2022-10-30T05:49:22.705Z,98897.94
2022-10-30T05:52:25.415Z,98901.31
2022-10-30T05:55:30.148Z,98903.91
2022-10-30T05:58:32.823Z,98898.56
2022-10-30T06:01:35.629Z,98900.84
2022-10-30T06:04:38.286Z,98901.81
2022-10-30T06:07:40.957Z,98909.25
2022-10-30T06:10:45.272Z,98900.22
2022-10-30T06:13:49.187Z,98902.16
2022-10-30T06:16:51.934Z,98906.34
2022-10-30T06:19:54.594Z,98909.72
2022-10-30T06:22:57.804Z,98908.28
2022-10-30T06:26:01.818Z,98921.31
2022-10-30T06:29:04.485Z,98925.97
2022-10-30T06:32:07.517Z,98919.19
2022-10-30T06:35:10.677Z,98919.38
2022-10-30T06:38:13.310Z,98921.28
2022-10-30T06:41:17.368Z,98922.41
2022-10-30T06:44:20.251Z,98923.53
2022-10-30T06:47:23.176Z,98916.09
2022-10-30T06:50:25.779Z,98920.75
2022-10-30T06:53:28.663Z,98916.53
2022-10-30T06:56:32.796Z,98925.97
2022-10-30T06:59:35.415Z,98926.44
2022-10-30T07:02:38.044Z,98917.69
2022-10-30T07:05:40.809Z,98919.09
2022-10-30T07:08:43.565Z,98930.22
2022-10-30T07:11:47.582Z,98920.19
2022-10-30T07:14:50.358Z,98935.00
2022-10-30T07:17:55.154Z,98930.25
2022-10-30T07:20:58.078Z,98923.59
2022-10-30T07:24:00.747Z,98931.16
2022-10-30T07:27:06.744Z,98931.91
2022-10-30T07:30:10.462Z,98931.91
2022-10-30T07:33:13.121Z,98932.00
2022-10-30T07:36:15.955Z,98931.13
2022-10-30T07:39:18.799Z,98935.75
2022-10-30T07:42:22.786Z,98930.53
2022-10-30T07:45:25.527Z,98935.28
2022-10-30T07:48:28.210Z,98932.13
2022-10-30T07:51:30.852Z,98928.75
2022-10-30T07:54:33.554Z,98931.53
2022-10-30T07:57:38.432Z,98926.44
2022-10-30T08:00:41.120Z,98934.50
2022-10-30T08:03:43.891Z,98938.50
2022-10-30T08:06:46.556Z,98937.59
2022-10-30T08:09:49.571Z,98935.22
2022-10-30T08:12:53.687Z,98941.75
2022-10-30T08:15:56.448Z,98941.88
2022-10-30T08:19:02.623Z,98932.69
2022-10-30T08:22:05.382Z,98936.34
2022-10-30T08:25:08.549Z,98938.63
2022-10-30T08:28:13.002Z,98931.47
2022-10-30T08:31:15.635Z,98937.84
2022-10-30T08:34:18.483Z,98942.97
2022-10-30T08:37:21.126Z,98941.47
2022-10-30T08:40:23.903Z,98938.47
2022-10-30T08:43:27.880Z,98936.50
2022-10-30T08:46:30.672Z,98936.34
2022-10-30T08:49:33.327Z,98933.88
2022-10-30T08:52:36.133Z,98940.13
2022-10-30T08:55:38.751Z,98932.94
2022-10-30T08:58:42.765Z,98932.41
2022-10-30T09:01:45.627Z,98935.09
2022-10-30T09:04:48.597Z,98933.09
2022-10-30T09:07:51.286Z,98927.41
2022-10-30T09:10:56.072Z,98935.97
2022-10-30T09:13:59.989Z,98938.63
2022-10-30T09:17:02.792Z,98935.75
2022-10-30T09:20:06.624Z,98937.50
2022-10-30T09:23:09.314Z,98930.59
2022-10-30T09:26:15.549Z,98930.91
2022-10-30T09:29:23.909Z,98930.41
2022-10-30T09:32:26.586Z,98941.75
2022-10-30T09:35:29.783Z,98939.69
2022-10-30T09:38:32.430Z,98936.13
2022-10-30T09:41:53.313Z,98930.81
2022-10-30T09:45:27.862Z,98943.31
2022-10-30T09:48:48.304Z,98941.91
2022-10-30T09:52:18.130Z,98937.78
2022-10-30T09:55:31.032Z,98936.50
2022-10-30T09:58:39.503Z,98936.34
2022-10-30T10:01:49.932Z,98942.59
2022-10-30T10:04:55.124Z,98942.72
2022-10-30T10:08:01.379Z,98931.06
2022-10-30T10:11:07.160Z,98937.22
2022-10-30T10:14:14.023Z,98940.38
2022-10-30T10:17:24.523Z,98935.97
2022-10-30T10:20:31.598Z,98931.41
2022-10-30T10:23:37.239Z,98936.97
2022-10-30T10:26:48.645Z,98940.44
2022-10-30T10:29:56.691Z,98939.47
2022-10-30T10:33:26.253Z,98937.66
2022-10-30T10:36:36.548Z,98936.91
2022-10-30T10:39:52.276Z,98934.22
2022-10-30T10:43:06.125Z,98924.50
2022-10-30T10:46:22.746Z,98932.81
2022-10-30T10:49:39.205Z,98935.28
2022-10-30T10:52:46.237Z,98930.25
2022-10-30T10:55:50.948Z,98927.13
2022-10-30T10:58:56.698Z,98929.66
2022-10-30T11:02:03.760Z,98920.97
2022-10-30T11:05:14.140Z,98912.25
2022-10-30T11:08:20.710Z,98903.97
2022-10-30T11:11:23.531Z,98910.78
2022-10-30T11:14:29.611Z,98901.66
2022-10-30T11:17:38.123Z,98892.50
2022-10-30T11:20:46.168Z,98900.06
2022-10-30T11:23:49.823Z,98896.09
2022-10-30T11:26:52.895Z,98903.22
2022-10-30T11:29:56.335Z,98892.03
2022-10-30T11:33:00.355Z,98888.34
2022-10-30T11:36:15.470Z,98885.13
2022-10-30T11:39:19.991Z,98887.13
2022-10-30T11:42:22.680Z,98880.28
2022-10-30T11:45:26.891Z,98886.66
2022-10-30T11:48:31.714Z,98882.88
2022-10-30T11:51:38.783Z,98888.38
2022-10-30T11:54:45.309Z,98884.22
2022-10-30T11:57:49.624Z,98886.56
2022-10-30T12:01:01.004Z,98884.94
2022-10-30T12:04:15.673Z,98880.97
2022-10-30T12:07:25.928Z,98880.91
2022-10-30T12:10:30.204Z,98870.06
2022-10-30T12:13:37.854Z,98865.53
2022-10-30T12:16:46.225Z,98873.34
2022-10-30T12:19:50.970Z,98869.03
2022-10-30T12:22:55.838Z,98863.53
2022-10-30T12:26:00.420Z,98862.84
2022-10-30T12:29:06.294Z,98860.13
2022-10-30T12:32:12.338Z,98859.72
2022-10-30T12:35:35.889Z,98856.06
2022-10-30T12:38:43.208Z,98856.41
2022-10-30T12:41:50.043Z,98857.25
2022-10-30T12:44:56.736Z,98850.34
2022-10-30T12:48:03.169Z,98850.88
2022-10-30T12:51:17.219Z,98859.00
2022-10-30T12:54:31.318Z,98855.06
2022-10-30T12:57:36.880Z,98852.03
2022-10-30T13:00:52.089Z,98842.25
2022-10-30T13:03:57.527Z,98841.72
2022-10-30T13:07:05.839Z,98844.03
2022-10-30T13:10:23.367Z,98837.28
2022-10-30T13:13:28.953Z,98833.19
2022-10-30T13:16:32.689Z,98831.31
2022-10-30T13:19:41.863Z,98835.13
2022-10-30T13:22:48.608Z,98822.59
2022-10-30T13:26:03.332Z,98829.94
2022-10-30T13:29:16.999Z,98825.84
2022-10-30T13:32:40.794Z,98827.34
2022-10-30T13:35:49.669Z,98826.31
2022-10-30T13:38:58.021Z,98829.34
2022-10-30T13:42:14.229Z,98825.94
2022-10-30T13:45:29.187Z,98820.09
2022-10-30T13:48:42.196Z,98819.88
2022-10-30T13:51:46.950Z,98825.16
2022-10-30T13:54:56.991Z,98820.84
2022-10-30T13:58:05.120Z,98823.69
2022-10-30T14:01:10.642Z,98818.81
2022-10-30T14:04:16.813Z,98816.47
2022-10-30T14:07:28.056Z,98811.28
2022-10-30T14:10:44.045Z,98814.19
2022-10-30T14:13:53.587Z,98807.72
2022-10-30T14:17:15.282Z,98809.53
2022-10-30T14:20:28.153Z,98813.69
2022-10-30T14:23:34.045Z,98806.50
2022-10-30T14:26:36.649Z,98805.22
2022-10-30T14:29:43.671Z,98812.78
2022-10-30T14:32:51.837Z,98799.91
2022-10-30T14:36:20.047Z,98799.59
2022-10-30T14:39:30.908Z,98797.53
2022-10-30T14:42:38.781Z,98795.72
2022-10-30T14:45:46.745Z,98801.44
2022-10-30T14:48:55.476Z,98811.50
2022-10-30T14:52:09.556Z,98805.94
2022-10-30T14:55:29.512Z,98810.78
2022-10-30T14:58:34.829Z,98811.25
2022-10-30T15:01:44.584Z,98811.69
2022-10-30T15:04:58.986Z,98820.50
2022-10-30T15:08:07.621Z,98814.13
2022-10-30T15:11:23.775Z,98820.84
2022-10-30T15:14:48.744Z,98821.19
2022-10-30T15:17:57.246Z,98819.53
2022-10-30T15:21:05.776Z,98826.16
2022-10-30T15:24:13.330Z,98820.09
2022-10-30T15:27:18.917Z,98830.38
2022-10-30T15:30:24.810Z,98823.19
2022-10-30T15:33:30.359Z,98827.84
2022-10-30T15:36:41.481Z,98821.00
2022-10-30T15:39:44.196Z,98828.81
2022-10-30T15:42:47.854Z,98822.72
2022-10-30T15:45:51.737Z,98827.34
2022-10-30T15:48:55.776Z,98826.00
2022-10-30T15:51:58.831Z,98832.16
2022-10-30T15:55:03.600Z,98824.03
2022-10-30T15:58:31.844Z,98826.59
2022-10-30T16:01:38.617Z,98830.69
2022-10-30T16:04:42.684Z,98829.56
2022-10-30T16:07:46.362Z,98834.47
2022-10-30T16:10:50.091Z,98828.94
2022-10-30T16:13:53.089Z,98833.81
2022-10-30T16:16:55.995Z,98829.97
2022-10-30T16:20:03.175Z,98833.41
2022-10-30T16:23:06.605Z,98830.81
2022-10-30T16:26:23.537Z,98833.75
2022-10-30T16:29:28.625Z,98836.25
2022-10-30T16:32:32.536Z,98829.00
2022-10-30T16:35:36.887Z,98830.97
2022-10-30T16:38:39.764Z,98834.47
2022-10-30T16:41:42.560Z,98836.94
2022-10-30T16:44:45.382Z,98841.25
2022-10-30T16:47:54.005Z,98843.88
2022-10-30T16:51:05.428Z,98844.53
2022-10-30T16:54:14.246Z,98841.19
2022-10-30T16:57:19.143Z,98848.69
2022-10-30T17:00:26.121Z,98847.53
2022-10-30T17:03:34.909Z,98844.28
2022-10-30T17:06:41.181Z,98853.44
2022-10-30T17:09:43.841Z,98854.84
2022-10-30T17:12:47.284Z,98863.81
2022-10-30T17:15:50.330Z,98864.47
2022-10-30T17:18:53.574Z,98867.44
2022-10-30T17:21:58.427Z,98874.19
2022-10-30T17:25:01.199Z,98868.97
2022-10-30T17:28:04.609Z,98871.63
2022-10-30T17:31:27.072Z,98870.66
2022-10-30T17:34:29.737Z,98876.44
2022-10-30T17:37:33.720Z,98877.50
2022-10-30T17:40:36.435Z,98888.69
2022-10-30T17:43:49.448Z,98894.97
2022-10-30T17:46:52.684Z,98886.72
2022-10-30T17:49:55.320Z,98897.31
2022-10-30T17:52:59.687Z,98901.09
2022-10-30T17:56:04.923Z,98902.88
2022-10-30T17:59:07.794Z,98906.09
2022-10-30T18:02:14.319Z,98897.41
2022-10-30T18:05:18.949Z,98902.47
2022-10-30T18:08:23.056Z,98902.00
2022-10-30T18:11:27.049Z,98901.13
2022-10-30T18:14:29.841Z,98900.88
2022-10-30T18:17:32.511Z,98905.97
2022-10-30T18:20:35.421Z,98909.88
2022-10-30T18:23:51.981Z,98920.69
2022-10-30T18:26:55.895Z,98926.88
2022-10-30T18:29:58.518Z,98929.88
2022-10-30T18:33:03.436Z,98933.47
2022-10-30T18:36:10.531Z,98930.22
2022-10-30T18:39:14.800Z,98939.19
2022-10-30T18:42:17.422Z,98933.22
2022-10-30T18:45:23.240Z,98941.41
2022-10-30T18:48:25.987Z,98935.41
2022-10-30T18:51:30.079Z,98943.22
2022-10-30T18:54:34.165Z,98944.38
2022-10-30T18:57:36.908Z,98947.38
2022-10-30T19:01:09.829Z,98947.16
2022-10-30T19:04:04.315Z,98952.66
2022-10-30T19:07:07.429Z,98943.94
2022-10-30T19:10:11.696Z,98946.25
2022-10-30T19:13:16.888Z,98945.19
2022-10-30T19:16:20.822Z,98934.84
2022-10-30T19:19:23.516Z,98947.78
2022-10-30T19:22:26.130Z,98954.22
2022-10-30T19:25:33.871Z,98947.94
2022-10-30T19:28:38.405Z,98951.50
2022-10-30T19:31:41.044Z,98948.63
2022-10-30T19:34:45.926Z,98947.59
2022-10-30T19:37:48.514Z,98946.22
2022-10-30T19:40:52.658Z,98953.22
2022-10-30T19:43:55.694Z,98949.41
2022-10-30T19:46:58.514Z,98957.56
2022-10-30T19:50:01.154Z,98960.19
2022-10-30T19:53:05.078Z,98965.31
2022-10-30T19:56:11.330Z,98957.91
2022-10-30T19:59:15.934Z,98960.97
2022-10-30T20:02:18.682Z,98954.22
2022-10-30T20:05:22.290Z,98955.59
2022-10-30T20:08:26.042Z,98949.88
2022-10-30T20:11:31.928Z,98955.78
2022-10-30T20:14:34.605Z,98955.09
2022-10-30T20:17:37.416Z,98960.53
2022-10-30T20:20:42.131Z,98972.13
2022-10-30T20:23:46.048Z,98970.13
2022-10-30T20:26:51.245Z,98980.31
2022-10-30T20:29:53.952Z,98985.66
2022-10-30T20:32:57.890Z,98999.06
2022-10-30T20:36:00.960Z,99004.13
2022-10-30T20:39:03.560Z,99015.13
2022-10-30T20:42:07.659Z,99022.50
2022-10-30T20:45:15.603Z,99020.41
2022-10-30T20:48:18.371Z,99023.63
2022-10-30T20:51:21.743Z,99013.78
2022-10-30T20:54:25.264Z,99008.94
2022-10-30T20:57:29.548Z,99008.44
2022-10-30T21:00:32.369Z,99011.88
2022-10-30T21:03:35.101Z,99010.72
2022-10-30T21:06:37.872Z,99011.50
2022-10-30T21:09:40.726Z,99014.25
2022-10-30T21:12:45.014Z,99012.59
2022-10-30T21:15:47.803Z,99008.63
2022-10-30T21:18:52.155Z,99017.41
2022-10-30T21:21:55.337Z,99003.41
2022-10-30T21:24:58.034Z,99012.97
2022-10-30T21:28:03.125Z,99001.19
2022-10-30T21:31:10.267Z,99005.22
2022-10-30T21:34:13.520Z,99015.09
2022-10-30T21:37:16.382Z,99012.88
2022-10-30T21:40:19.059Z,99010.88
2022-10-30T21:43:23.189Z,99004.88
2022-10-30T21:46:28.220Z,98995.81
2022-10-30T21:49:30.990Z,99012.63
2022-10-30T21:52:33.794Z,99002.28
2022-10-30T21:55:38.731Z,99000.00
2022-10-30T21:58:43.130Z,98996.16
2022-10-30T22:01:46.569Z,99002.47
2022-10-30T22:04:49.427Z,99009.19
2022-10-30T22:07:52.596Z,99003.53
2022-10-30T22:10:55.242Z,99010.97
2022-10-30T22:14:00.646Z,99012.47
2022-10-30T22:17:04.023Z,99013.00
2022-10-30T22:20:07.840Z,99011.13
2022-10-30T22:23:10.601Z,99015.00
2022-10-30T22:26:15.133Z,99020.47
2022-10-30T22:29:19.162Z,99010.50
2022-10-30T22:32:22.966Z,99010.09
2022-10-30T22:35:25.773Z,99016.50
2022-10-30T22:38:28.518Z,99012.50
2022-10-30T22:41:36.484Z,99017.69
2022-10-30T22:44:42.910Z,99027.22
2022-10-30T22:47:45.607Z,99018.88
2022-10-30T22:50:48.249Z,99022.56
2022-10-30T22:53:56.909Z,99024.66
2022-10-30T22:56:59.523Z,99021.13
2022-10-30T23:00:03.578Z,99021.91
2022-10-30T23:03:06.262Z,99024.19
2022-10-30T23:06:09.476Z,99020.78
2022-10-30T23:09:17.137Z,99029.84
2022-10-30T23:12:19.845Z,99020.19
2022-10-30T23:15:24.267Z,99025.63
2022-10-30T23:18:27.295Z,99025.63
2022-10-30T23:21:31.388Z,99024.50
2022-10-30T23:24:34.147Z,99021.25
2022-10-30T23:27:36.858Z,99028.84
2022-10-30T23:30:43.914Z,99024.78
2022-10-30T23:33:49.039Z,99019.97
2022-10-30T23:36:51.769Z,99020.78
2022-10-30T23:39:54.467Z,99018.53
2022-10-30T23:42:57.524Z,99021.28
2022-10-30T23:46:01.946Z,99021.78
2022-10-30T23:49:05.200Z,99025.81
2022-10-30T23:52:07.853Z,99023.41
2022-10-30T23:55:11.038Z,99026.81
2022-10-30T23:58:13.808Z,99026.94
